Terminal Aerodrome Forecast
Issued by NWS Wilmington, OH

Current Version | Previous Version | Graphics & Text | Print | Product List | Glossary On
Versions: 1 2 3 4 5 6 7 8 9 10 11 12 13 14 15 16 17 18 19 20 21 22 23 24 25 26 27
000
FTUS41 KILN 201100
TAFDAY
TAF
KDAY 201138Z 2012/2112 22006KT P6SM FEW025 SCT250
     FM201400 27009KT P6SM FEW040
     FM201700 29012G20KT P6SM SCT040
     FM210000 24006KT P6SM SCT100 SCT250
     FM211100 22005KT P6SM -SHRA VCTS OVC040CB=

USA.gov is the U.S. government's official web portal to all federal, state and local government web resources and services.